createdAt,value
2023-05-05T00:00:33.241Z,134.62
2023-05-05T00:01:33.347Z,131.75
2023-05-05T00:02:33.365Z,127.32
2023-05-05T00:03:33.399Z,126.40
2023-05-05T00:04:33.369Z,128.94
2023-05-05T00:05:33.418Z,133.01
2023-05-05T00:06:33.440Z,135.36
2023-05-05T00:07:33.459Z,139.47
2023-05-05T00:08:33.501Z,138.32
2023-05-05T00:09:33.566Z,141.50
2023-05-05T00:10:33.587Z,143.08
2023-05-05T00:11:33.646Z,140.23
2023-05-05T00:12:33.684Z,141.16
2023-05-05T00:13:33.693Z,140.23
2023-05-05T00:14:33.737Z,142.27
2023-05-05T00:15:33.763Z,145.16
2023-05-05T00:16:33.791Z,146.04
2023-05-05T00:17:33.884Z,141.43
2023-05-05T00:18:33.861Z,141.05
2023-05-05T00:19:33.872Z,143.68
2023-05-05T00:20:33.902Z,145.49
2023-05-05T00:21:33.931Z,144.29
2023-05-05T00:22:33.946Z,145.40
2023-05-05T00:23:33.998Z,143.32
2023-05-05T00:24:34.021Z,144.10
2023-05-05T00:25:34.038Z,142.40
2023-05-05T00:26:34.086Z,141.27
2023-05-05T00:27:34.114Z,142.97
2023-05-05T00:28:34.143Z,145.20
2023-05-05T00:29:34.190Z,147.47
2023-05-05T00:30:34.261Z,147.43
2023-05-05T00:31:34.350Z,143.62
2023-05-05T00:32:34.437Z,142.47
2023-05-05T00:33:34.533Z,143.54
2023-05-05T00:34:34.507Z,142.50
2023-05-05T00:35:34.602Z,135.94
2023-05-05T00:36:34.634Z,141.33
2023-05-05T00:37:34.672Z,139.27
2023-05-05T00:38:34.731Z,136.96
2023-05-05T00:39:34.817Z,135.26
2023-05-05T00:40:34.846Z,134.17
2023-05-05T00:41:34.901Z,131.84
2023-05-05T00:42:34.914Z,134.70
2023-05-05T00:43:34.944Z,134.20
2023-05-05T00:44:34.994Z,131.47
2023-05-05T00:45:35.046Z,129.85
2023-05-05T00:46:35.108Z,129.25
2023-05-05T00:47:35.160Z,125.16
2023-05-05T00:48:35.179Z,122.76
2023-05-05T00:49:35.232Z,120.07
2023-05-05T00:50:35.238Z,117.69
2023-05-05T00:51:35.256Z,111.37
2023-05-05T00:52:35.293Z,106.41
2023-05-05T00:53:35.351Z,102.61
2023-05-05T00:54:35.383Z,97.64
2023-05-05T00:55:35.425Z,95.94
2023-05-05T00:56:35.437Z,94.52
2023-05-05T00:57:35.503Z,93.34
2023-05-05T00:58:35.533Z,94.37
2023-05-05T00:59:35.540Z,95.97
2023-05-05T01:00:35.578Z,101.24
2023-05-05T01:01:35.638Z,103.92
2023-05-05T01:02:35.704Z,107.15
2023-05-05T01:03:35.750Z,109.10
2023-05-05T01:04:35.728Z,112.38
2023-05-05T01:05:35.751Z,118.20
2023-05-05T01:06:35.780Z,129.43
2023-05-05T01:07:35.814Z,138.57
2023-05-05T01:08:35.832Z,145.52
2023-05-05T01:09:35.885Z,147.13
2023-05-05T01:10:35.902Z,152.96
2023-05-05T01:11:35.917Z,158.44
2023-05-05T01:12:36.029Z,158.82
2023-05-05T01:13:35.997Z,159.82
2023-05-05T01:14:36.021Z,156.15
2023-05-05T01:15:36.046Z,156.13
2023-05-05T01:16:36.124Z,157.20
2023-05-05T01:17:36.115Z,163.21
2023-05-05T01:18:36.116Z,154.90
2023-05-05T01:19:36.153Z,156.66
2023-05-05T01:20:36.206Z,158.81
2023-05-05T01:21:36.213Z,153.51
2023-05-05T01:22:36.438Z,153.20
2023-05-05T01:23:36.246Z,157.59
2023-05-05T01:24:36.250Z,157.20
2023-05-05T01:25:36.283Z,157.31
2023-05-05T01:26:36.340Z,156.28
2023-05-05T01:27:36.364Z,157.55
2023-05-05T01:28:36.368Z,157.10
2023-05-05T01:29:36.407Z,159.17
2023-05-05T01:30:36.425Z,159.72
2023-05-05T01:31:36.543Z,161.25
2023-05-05T01:32:36.492Z,160.08
2023-05-05T01:33:36.486Z,162.56
2023-05-05T01:34:36.542Z,160.21
2023-05-05T01:35:36.592Z,162.13
2023-05-05T01:36:36.620Z,162.90
2023-05-05T01:37:36.617Z,162.96
2023-05-05T01:38:36.663Z,163.24
2023-05-05T01:39:36.706Z,161.77
2023-05-05T01:40:36.707Z,162.67
2023-05-05T01:41:36.745Z,164.02
2023-05-05T01:42:36.861Z,163.71
2023-05-05T01:43:36.769Z,163.69
2023-05-05T01:44:36.789Z,164.27
2023-05-05T01:45:36.895Z,162.95
2023-05-05T01:46:36.960Z,163.92
2023-05-05T01:47:36.868Z,164.24
2023-05-05T01:48:36.883Z,164.89
2023-05-05T01:49:36.901Z,165.32
2023-05-05T01:50:36.934Z,165.95
2023-05-05T01:51:36.941Z,168.99
2023-05-05T01:52:36.971Z,168.07
2023-05-05T01:53:36.991Z,166.09
2023-05-05T01:54:37.013Z,167.52
2023-05-05T01:55:37.026Z,167.01
2023-05-05T01:56:37.033Z,167.32
2023-05-05T01:57:37.079Z,167.82
2023-05-05T01:58:37.068Z,169.26
2023-05-05T01:59:37.085Z,167.24
2023-05-05T02:00:37.106Z,169.21
2023-05-05T02:01:37.178Z,170.46
2023-05-05T02:02:37.202Z,169.57
2023-05-05T02:03:37.177Z,169.80
2023-05-05T02:04:37.187Z,171.10
2023-05-05T02:05:37.182Z,173.43
2023-05-05T02:06:37.220Z,170.90
2023-05-05T02:07:37.236Z,170.22
2023-05-05T02:08:37.261Z,171.42
2023-05-05T02:09:37.277Z,170.82
2023-05-05T02:10:37.302Z,170.73
2023-05-05T02:11:37.314Z,170.86
2023-05-05T02:12:37.382Z,170.92
2023-05-05T02:13:37.406Z,172.32
2023-05-05T02:14:37.356Z,172.80
2023-05-05T02:15:37.413Z,172.53
2023-05-05T02:16:37.418Z,172.14
2023-05-05T02:17:37.457Z,173.93
2023-05-05T02:18:37.511Z,171.80
2023-05-05T02:19:37.558Z,173.34
2023-05-05T02:20:37.557Z,176.12
2023-05-05T02:21:37.612Z,174.65
2023-05-05T02:22:37.623Z,175.96
2023-05-05T02:23:37.648Z,174.24
2023-05-05T02:24:37.656Z,175.35
2023-05-05T02:25:37.689Z,174.70
2023-05-05T02:26:37.712Z,174.21
2023-05-05T02:27:37.722Z,175.25
2023-05-05T02:28:37.815Z,174.95
2023-05-05T02:29:37.753Z,174.67
2023-05-05T02:30:37.772Z,177.43
2023-05-05T02:31:37.859Z,175.21
2023-05-05T02:32:37.908Z,174.37
2023-05-05T02:33:37.949Z,176.73
2023-05-05T02:34:38.015Z,176.36
2023-05-05T02:35:38.084Z,175.70
2023-05-05T02:36:38.127Z,175.17
2023-05-05T02:37:38.197Z,173.93
2023-05-05T02:38:38.249Z,175.46
2023-05-05T02:39:38.296Z,176.30
2023-05-05T02:40:38.368Z,174.90
2023-05-05T02:41:38.416Z,176.78
2023-05-05T02:42:38.418Z,178.27
2023-05-05T02:43:38.417Z,179.17
2023-05-05T02:44:38.558Z,176.91
2023-05-05T02:45:38.448Z,177.71
2023-05-05T02:46:38.556Z,178.05
2023-05-05T02:47:38.570Z,177.62
2023-05-05T02:48:38.547Z,177.81
2023-05-05T02:49:38.645Z,177.66
2023-05-05T02:50:38.666Z,178.84
2023-05-05T02:51:38.672Z,177.20
2023-05-05T02:52:38.720Z,177.03
2023-05-05T02:53:38.697Z,179.45
2023-05-05T02:54:38.717Z,177.54
2023-05-05T02:55:38.735Z,177.61
2023-05-05T02:56:38.754Z,177.57
2023-05-05T02:57:38.831Z,180.75
2023-05-05T02:58:38.804Z,181.05
2023-05-05T02:59:38.809Z,180.55
2023-05-05T03:00:38.820Z,179.69
2023-05-05T03:01:38.999Z,180.46
2023-05-05T03:02:38.979Z,182.03
2023-05-05T03:03:39.103Z,180.84
2023-05-05T03:04:38.865Z,178.85
2023-05-05T03:05:38.883Z,179.75
2023-05-05T03:06:38.901Z,178.97
2023-05-05T03:07:38.939Z,177.54
2023-05-05T03:08:38.932Z,182.87
2023-05-05T03:09:38.947Z,179.07
2023-05-05T03:10:38.953Z,180.48
2023-05-05T03:11:38.982Z,181.21
2023-05-05T03:12:39.033Z,182.05
2023-05-05T03:13:38.992Z,182.91
2023-05-05T03:14:39.020Z,180.26
2023-05-05T03:15:39.006Z,180.59
2023-05-05T03:16:39.094Z,177.83
2023-05-05T03:17:39.087Z,179.17
2023-05-05T03:18:39.069Z,178.29
2023-05-05T03:19:39.074Z,179.34
2023-05-05T03:20:39.078Z,181.29
2023-05-05T03:21:39.090Z,182.35
2023-05-05T03:22:39.119Z,179.91
2023-05-05T03:23:39.140Z,179.91
2023-05-05T03:24:39.173Z,178.66
2023-05-05T03:25:39.167Z,178.68
2023-05-05T03:26:39.224Z,178.06
2023-05-05T03:27:39.276Z,178.18
2023-05-05T03:28:39.320Z,177.19
2023-05-05T03:29:41.028Z,176.39
2023-05-05T03:30:39.439Z,177.11
2023-05-05T03:31:39.580Z,177.92
2023-05-05T03:32:39.620Z,181.06
2023-05-05T03:33:39.618Z,179.69
2023-05-05T03:34:39.659Z,179.63
2023-05-05T03:35:39.732Z,179.01
2023-05-05T03:36:39.779Z,179.98
2023-05-05T03:37:39.876Z,180.16
2023-05-05T03:38:39.889Z,180.58
2023-05-05T03:39:39.898Z,180.61
2023-05-05T03:40:44.186Z,180.48
2023-05-05T03:41:39.926Z,180.60
2023-05-05T03:42:39.910Z,180.51
2023-05-05T03:43:39.896Z,180.81
2023-05-05T03:44:39.884Z,181.47
2023-05-05T03:45:39.903Z,181.67
2023-05-05T03:46:39.870Z,181.07
2023-05-05T03:47:39.902Z,181.89
2023-05-05T03:48:39.867Z,182.17
2023-05-05T03:49:39.868Z,181.67
2023-05-05T03:50:39.845Z,181.95
2023-05-05T03:51:39.837Z,183.74
2023-05-05T03:52:39.839Z,182.38
2023-05-05T03:53:39.806Z,181.66
2023-05-05T03:54:39.818Z,184.14
2023-05-05T03:55:39.806Z,183.49
2023-05-05T03:56:39.786Z,183.95
2023-05-05T03:57:39.813Z,184.18
2023-05-05T03:58:39.806Z,184.17
2023-05-05T03:59:39.809Z,183.17
2023-05-05T04:00:39.827Z,183.65
2023-05-05T04:01:39.895Z,183.29
2023-05-05T04:02:39.890Z,182.10
2023-05-05T04:03:39.942Z,183.00
2023-05-05T04:04:39.919Z,182.55
2023-05-05T04:05:39.994Z,184.28
2023-05-05T04:06:40.057Z,185.22
2023-05-05T04:07:40.094Z,186.45
2023-05-05T04:08:40.133Z,183.94
2023-05-05T04:09:40.154Z,183.48
2023-05-05T04:10:40.153Z,183.90
2023-05-05T04:11:40.221Z,184.81
2023-05-05T04:12:40.285Z,184.95
2023-05-05T04:13:40.277Z,182.98
2023-05-05T04:14:40.284Z,183.48
2023-05-05T04:15:40.291Z,184.92
2023-05-05T04:16:40.309Z,182.78
2023-05-05T04:17:40.347Z,185.73
2023-05-05T04:18:40.340Z,183.32
2023-05-05T04:19:40.362Z,184.94
2023-05-05T04:20:40.409Z,183.46
2023-05-05T04:21:40.424Z,182.64
2023-05-05T04:22:40.459Z,180.26
2023-05-05T04:23:40.520Z,182.74
2023-05-05T04:24:40.565Z,181.99
2023-05-05T04:25:40.634Z,182.69
2023-05-05T04:26:40.701Z,184.26
2023-05-05T04:27:40.717Z,183.51
2023-05-05T04:28:40.754Z,183.64
2023-05-05T04:29:40.751Z,183.54
2023-05-05T04:30:40.769Z,184.48
2023-05-05T04:31:40.864Z,184.34
2023-05-05T04:32:40.866Z,185.04
2023-05-05T04:33:40.837Z,185.59
2023-05-05T04:34:40.816Z,185.04
2023-05-05T04:35:40.838Z,184.98
2023-05-05T04:36:40.864Z,183.25
2023-05-05T04:37:40.923Z,183.24
2023-05-05T04:38:41.012Z,182.98
2023-05-05T04:39:41.044Z,182.06
2023-05-05T04:40:41.110Z,182.34
2023-05-05T04:41:41.143Z,184.07
2023-05-05T04:42:41.164Z,183.37
2023-05-05T04:43:41.135Z,182.45
2023-05-05T04:44:41.134Z,182.93
2023-05-05T04:45:41.156Z,182.79
2023-05-05T04:46:41.210Z,180.72
2023-05-05T04:47:41.189Z,184.07
2023-05-05T04:48:41.151Z,180.58
2023-05-05T04:49:41.159Z,180.76
2023-05-05T04:50:41.164Z,181.14
2023-05-05T04:51:41.182Z,182.30
2023-05-05T04:52:41.235Z,183.66
2023-05-05T04:53:41.311Z,182.12
2023-05-05T04:54:41.361Z,180.09
2023-05-05T04:55:41.397Z,179.89
2023-05-05T04:56:41.416Z,178.55
2023-05-05T04:57:41.423Z,178.77
2023-05-05T04:58:41.437Z,178.37
2023-05-05T04:59:41.444Z,177.11
2023-05-05T05:00:41.466Z,172.18
2023-05-05T05:01:41.528Z,169.37
2023-05-05T05:02:41.578Z,166.13
2023-05-05T05:03:41.720Z,161.90
2023-05-05T05:04:41.629Z,155.64
2023-05-05T05:05:41.682Z,154.00
2023-05-05T05:06:41.734Z,151.99
2023-05-05T05:07:41.758Z,150.50
2023-05-05T05:08:41.768Z,148.74
2023-05-05T05:09:41.785Z,147.24
2023-05-05T05:10:41.815Z,149.23
2023-05-05T05:11:41.822Z,149.79
2023-05-05T05:12:41.843Z,149.80
2023-05-05T05:13:41.821Z,148.95
2023-05-05T05:14:41.884Z,149.44
2023-05-05T05:15:41.877Z,150.85
2023-05-05T05:16:41.938Z,148.61
2023-05-05T05:17:41.942Z,148.48
2023-05-05T05:18:41.958Z,148.62
2023-05-05T05:19:41.997Z,149.31
2023-05-05T05:20:42.028Z,150.52
2023-05-05T05:21:42.067Z,153.14
2023-05-05T05:22:42.085Z,156.01
2023-05-05T05:23:42.132Z,159.72
2023-05-05T05:24:42.182Z,159.81
2023-05-05T05:25:42.186Z,168.56
2023-05-05T05:26:42.204Z,167.26
2023-05-05T05:27:42.224Z,162.97
2023-05-05T05:28:42.249Z,157.59
2023-05-05T05:29:42.324Z,161.95
2023-05-05T05:30:42.362Z,164.62
2023-05-05T05:31:42.495Z,166.01
2023-05-05T05:32:42.467Z,166.67
2023-05-05T05:33:42.589Z,172.26
2023-05-05T05:34:42.577Z,185.14
2023-05-05T05:35:42.637Z,192.46
2023-05-05T05:36:42.677Z,197.89
2023-05-05T05:37:42.715Z,204.47
2023-05-05T05:38:42.736Z,211.77
2023-05-05T05:39:43.756Z,221.27
2023-05-05T05:40:42.736Z,231.50
2023-05-05T05:41:42.799Z,237.21
2023-05-05T05:42:42.841Z,240.64
2023-05-05T05:43:43.061Z,246.39
2023-05-05T05:44:42.888Z,260.68
2023-05-05T05:45:43.046Z,249.90
2023-05-05T05:46:43.051Z,247.24
2023-05-05T05:47:42.983Z,248.12
2023-05-05T05:48:43.012Z,250.00
2023-05-05T05:49:43.034Z,250.00
2023-05-05T05:50:43.074Z,248.95
2023-05-05T05:51:43.124Z,250.12
2023-05-05T05:52:43.161Z,249.17
2023-05-05T05:53:43.208Z,249.93
2023-05-05T05:54:43.224Z,249.42
2023-05-05T05:55:43.256Z,249.03
2023-05-05T05:56:43.292Z,249.44
2023-05-05T05:57:43.299Z,248.88
2023-05-05T05:58:43.322Z,248.05
2023-05-05T05:59:43.341Z,248.77
2023-05-05T06:00:43.357Z,249.80
2023-05-05T06:01:43.357Z,249.79
2023-05-05T06:02:43.459Z,250.00
2023-05-05T06:03:43.672Z,249.57
2023-05-05T06:04:43.500Z,248.29
2023-05-05T06:05:43.535Z,247.96
2023-05-05T06:06:43.589Z,248.12
2023-05-05T06:07:43.569Z,249.75
2023-05-05T06:08:43.578Z,248.26
2023-05-05T06:09:43.654Z,248.41
2023-05-05T06:10:43.685Z,247.41
2023-05-05T06:11:43.698Z,247.37
2023-05-05T06:12:43.736Z,248.35
2023-05-05T06:13:43.733Z,248.72
2023-05-05T06:14:43.742Z,249.39
2023-05-05T06:15:43.782Z,249.48
2023-05-05T06:16:43.746Z,250.00
2023-05-05T06:17:43.795Z,248.52
2023-05-05T06:18:44.089Z,247.04
2023-05-05T06:19:43.759Z,246.38
2023-05-05T06:20:43.746Z,249.02
2023-05-05T06:21:43.769Z,247.77
2023-05-05T06:22:43.758Z,245.12
2023-05-05T06:23:43.799Z,245.83
2023-05-05T06:24:43.795Z,244.20
2023-05-05T06:25:43.813Z,244.55
2023-05-05T06:26:43.831Z,256.70
2023-05-05T06:27:43.824Z,249.08
2023-05-05T06:28:43.845Z,242.99
2023-05-05T06:29:43.847Z,239.01
2023-05-05T06:30:43.861Z,237.05
2023-05-05T06:31:44.121Z,233.18
2023-05-05T06:32:43.946Z,225.69
2023-05-05T06:33:43.939Z,208.44
2023-05-05T06:34:43.971Z,195.93
2023-05-05T06:35:43.992Z,191.97
2023-05-05T06:36:44.063Z,200.55
2023-05-05T06:37:44.069Z,205.06
2023-05-05T06:38:44.111Z,205.74
2023-05-05T06:39:44.155Z,230.91
2023-05-05T06:40:44.183Z,225.12
2023-05-05T06:41:44.233Z,204.52
2023-05-05T06:42:44.283Z,199.35
2023-05-05T06:43:44.600Z,229.15
2023-05-05T06:44:44.372Z,247.75
2023-05-05T06:45:44.431Z,250.02
2023-05-05T06:46:44.621Z,202.87
2023-05-05T06:47:44.612Z,194.24
2023-05-05T06:48:44.575Z,190.83
2023-05-05T06:49:44.642Z,201.45
2023-05-05T06:50:44.683Z,203.52
2023-05-05T06:51:44.736Z,206.59
2023-05-05T06:52:44.771Z,205.29
2023-05-05T06:53:45.105Z,206.62
2023-05-05T06:54:44.903Z,194.26
2023-05-05T06:55:44.900Z,181.85
2023-05-05T06:56:44.935Z,177.99
2023-05-05T06:57:44.985Z,176.50
2023-05-05T06:58:45.025Z,180.79
2023-05-05T06:59:45.073Z,186.40
2023-05-05T07:00:45.184Z,191.15
2023-05-05T07:01:45.165Z,191.59
2023-05-05T07:02:45.260Z,192.70
2023-05-05T07:03:45.326Z,193.27
2023-05-05T07:04:45.283Z,194.01
2023-05-05T07:05:45.271Z,193.60
2023-05-05T07:06:45.285Z,194.26
2023-05-05T07:07:45.281Z,192.90
2023-05-05T07:08:45.645Z,194.22
2023-05-05T07:09:45.288Z,198.40
2023-05-05T07:10:45.334Z,205.70
2023-05-05T07:11:45.595Z,205.08
2023-05-05T07:12:45.420Z,211.62
2023-05-05T07:13:45.406Z,212.69
2023-05-05T07:14:45.438Z,212.69
2023-05-05T07:15:45.461Z,219.02
2023-05-05T07:16:45.564Z,237.70
2023-05-05T07:17:45.536Z,254.72
2023-05-05T07:18:45.531Z,250.26
2023-05-05T07:19:45.599Z,234.32
2023-05-05T07:20:45.550Z,224.38
2023-05-05T07:21:45.559Z,222.24
2023-05-05T07:22:45.842Z,222.03
2023-05-05T07:23:45.573Z,214.43
2023-05-05T07:24:45.591Z,209.22
2023-05-05T07:25:45.626Z,204.79
2023-05-05T07:26:45.740Z,182.21
2023-05-05T07:27:45.722Z,154.22
2023-05-05T07:28:46.102Z,158.15
2023-05-05T07:29:45.787Z,154.00
2023-05-05T07:30:45.972Z,136.37
2023-05-05T07:31:46.178Z,141.63
2023-05-05T07:32:45.962Z,152.61
2023-05-05T07:33:45.866Z,155.84
2023-05-05T07:34:45.897Z,151.33
2023-05-05T07:35:45.907Z,150.32
2023-05-05T07:36:46.129Z,150.66
2023-05-05T07:37:45.918Z,152.31
2023-05-05T07:38:45.922Z,153.93
2023-05-05T07:39:45.918Z,156.27
2023-05-05T07:40:45.912Z,159.44
2023-05-05T07:41:45.950Z,161.31
2023-05-05T07:42:46.066Z,163.15
2023-05-05T07:43:46.094Z,162.20
2023-05-05T07:44:46.104Z,163.07
2023-05-05T07:45:46.127Z,162.13
2023-05-05T07:46:46.129Z,167.04
2023-05-05T07:47:46.215Z,166.37
2023-05-05T07:48:46.606Z,168.26
2023-05-05T07:49:46.180Z,169.62
2023-05-05T07:50:46.283Z,169.69
2023-05-05T07:51:46.302Z,169.05
2023-05-05T07:52:49.950Z,171.10
2023-05-05T07:53:47.341Z,170.57
2023-05-05T07:54:46.338Z,168.47
2023-05-05T07:55:46.349Z,167.84
2023-05-05T07:56:46.345Z,169.34
2023-05-05T07:57:46.332Z,167.01
2023-05-05T07:58:46.378Z,171.45
2023-05-05T07:59:46.331Z,177.24
2023-05-05T08:00:46.329Z,179.46
2023-05-05T08:01:46.628Z,179.97
2023-05-05T08:02:46.372Z,181.93
2023-05-05T08:03:46.375Z,180.83
2023-05-05T08:04:46.309Z,179.56
2023-05-05T08:05:46.282Z,184.48
2023-05-05T08:06:46.279Z,189.21
2023-05-05T08:07:46.257Z,188.32
2023-05-05T08:08:46.236Z,189.86
2023-05-05T08:09:46.638Z,190.71
2023-05-05T08:10:46.248Z,184.52
2023-05-05T08:11:46.231Z,182.15
2023-05-05T08:12:46.240Z,183.97
2023-05-05T08:13:46.308Z,151.78
2023-05-05T08:14:46.431Z,145.87
2023-05-05T08:15:46.403Z,146.17
2023-05-05T08:16:46.358Z,137.06
2023-05-05T08:17:46.639Z,117.11
2023-05-05T08:18:46.400Z,102.58
2023-05-05T08:19:46.651Z,84.48
2023-05-05T08:20:46.370Z,88.11
2023-05-05T08:21:46.371Z,89.65
2023-05-05T08:22:46.413Z,96.84
2023-05-05T08:23:46.661Z,103.49
2023-05-05T08:24:46.426Z,117.66
2023-05-05T08:25:46.453Z,120.02
2023-05-05T08:26:46.498Z,123.69
2023-05-05T08:27:46.563Z,130.53
2023-05-05T08:28:46.611Z,129.47
2023-05-05T08:29:46.624Z,132.89
2023-05-05T08:30:46.762Z,132.19
2023-05-05T08:31:46.801Z,135.51
2023-05-05T08:32:46.812Z,138.89
2023-05-05T08:33:46.849Z,130.75
2023-05-05T08:34:46.800Z,105.82
2023-05-05T08:35:46.803Z,107.03
2023-05-05T08:36:46.844Z,108.26
2023-05-05T08:37:46.828Z,113.82
2023-05-05T08:38:46.831Z,123.56
2023-05-05T08:39:46.894Z,128.99
2023-05-05T08:40:46.915Z,126.24
2023-05-05T08:41:46.975Z,125.61
2023-05-05T08:42:46.997Z,117.19
2023-05-05T08:43:47.040Z,120.46
2023-05-05T08:44:47.092Z,116.14
2023-05-05T08:45:47.142Z,114.22
2023-05-05T08:46:47.341Z,112.08
2023-05-05T08:47:47.661Z,116.36
2023-05-05T08:48:47.212Z,115.98
2023-05-05T08:49:47.232Z,120.74
2023-05-05T08:50:47.279Z,128.92
2023-05-05T08:51:47.492Z,134.76
2023-05-05T08:52:48.644Z,140.24
2023-05-05T08:53:47.451Z,136.29
2023-05-05T08:54:47.650Z,138.21
2023-05-05T08:55:47.548Z,141.85
2023-05-05T08:56:47.566Z,139.41
2023-05-05T08:57:47.632Z,134.93
2023-05-05T08:58:47.739Z,139.33
2023-05-05T08:59:47.665Z,136.82
2023-05-05T09:00:47.729Z,140.12
2023-05-05T09:01:47.738Z,139.25
2023-05-05T09:02:48.040Z,132.23
2023-05-05T09:03:47.852Z,143.57
2023-05-05T09:04:48.151Z,139.38
2023-05-05T09:05:47.932Z,139.46
2023-05-05T09:06:47.954Z,142.19
2023-05-05T09:07:48.013Z,149.26
2023-05-05T09:08:48.104Z,151.72
2023-05-05T09:09:48.133Z,152.13
2023-05-05T09:10:48.227Z,152.51
2023-05-05T09:11:48.244Z,156.17
2023-05-05T09:12:48.311Z,162.75
2023-05-05T09:13:48.371Z,165.01
2023-05-05T09:14:48.357Z,171.23
2023-05-05T09:15:48.320Z,168.91
2023-05-05T09:16:48.467Z,167.02
2023-05-05T09:17:48.617Z,170.71
2023-05-05T09:18:48.452Z,171.63
2023-05-05T09:19:48.452Z,174.11
2023-05-05T09:20:48.481Z,182.20
2023-05-05T09:21:48.536Z,183.06
2023-05-05T09:22:48.537Z,184.78
2023-05-05T09:23:48.608Z,190.65
2023-05-05T09:24:48.638Z,192.24
2023-05-05T09:25:48.742Z,191.36
2023-05-05T09:26:48.773Z,184.16
2023-05-05T09:27:48.820Z,179.49
2023-05-05T09:28:49.029Z,172.30
2023-05-05T09:29:48.878Z,162.67
2023-05-05T09:30:48.975Z,153.00
2023-05-05T09:31:48.959Z,154.69
2023-05-05T09:32:49.220Z,113.20
2023-05-05T09:33:49.053Z,121.89
2023-05-05T09:34:49.200Z,69.71
2023-05-05T09:35:49.092Z,38.54
2023-05-05T09:36:49.171Z,60.87
2023-05-05T09:37:49.153Z,74.01
2023-05-05T09:38:49.163Z,47.97
2023-05-05T09:39:49.244Z,42.33
2023-05-05T09:40:49.288Z,39.49
2023-05-05T09:41:49.284Z,37.90
2023-05-05T09:42:49.311Z,37.10
2023-05-05T09:43:49.325Z,41.06
2023-05-05T09:44:49.393Z,45.98
2023-05-05T09:45:49.418Z,57.72
2023-05-05T09:46:49.493Z,46.03
2023-05-05T09:47:49.569Z,45.92
2023-05-05T09:48:49.554Z,47.28
2023-05-05T09:49:49.535Z,47.26
2023-05-05T09:50:49.759Z,54.61
2023-05-05T09:51:49.625Z,55.38
2023-05-05T09:52:49.662Z,57.25
2023-05-05T09:53:49.764Z,60.81
2023-05-05T09:54:49.762Z,66.65
2023-05-05T09:55:49.783Z,67.86
2023-05-05T09:56:49.802Z,46.58
2023-05-05T09:57:49.794Z,44.35
2023-05-05T09:58:49.837Z,4.61
2023-05-05T09:59:49.857Z,41.42
2023-05-05T10:00:49.913Z,19.63
2023-05-05T10:01:49.927Z,26.18
2023-05-05T10:02:50.003Z,29.26
2023-05-05T10:03:49.983Z,25.02
2023-05-05T10:04:50.196Z,23.56
2023-05-05T10:05:50.099Z,48.96
2023-05-05T10:06:50.228Z,50.56
2023-05-05T10:07:50.201Z,62.21
2023-05-05T10:08:50.244Z,33.96
2023-05-05T10:09:50.303Z,25.00
2023-05-05T10:10:50.369Z,34.61
2023-05-05T10:11:50.443Z,41.16
2023-05-05T10:12:50.563Z,55.54
2023-05-05T10:13:50.521Z,50.68
2023-05-05T10:14:50.557Z,56.85
2023-05-05T10:15:50.604Z,53.60
2023-05-05T10:16:50.636Z,48.19
2023-05-05T10:18:02.193Z,61.17
2023-05-05T10:18:51.601Z,46.45
2023-05-05T10:19:50.602Z,45.49
2023-05-05T10:20:50.895Z,39.46
2023-05-05T10:21:50.702Z,42.13
2023-05-05T10:22:50.684Z,45.16
2023-05-05T10:23:50.593Z,51.25
2023-05-05T10:24:50.547Z,32.67
2023-05-05T10:25:50.553Z,37.83
2023-05-05T10:26:50.584Z,43.27
2023-05-05T10:27:50.540Z,43.49
2023-05-05T10:28:50.554Z,32.17
2023-05-05T10:29:50.532Z,25.91
2023-05-05T10:30:50.530Z,29.54
2023-05-05T10:31:50.550Z,35.33
2023-05-05T10:33:00.861Z,36.62
2023-05-05T10:33:51.593Z,36.84
2023-05-05T10:34:50.527Z,37.89
2023-05-05T10:35:50.494Z,42.83
2023-05-05T10:36:50.511Z,55.14
2023-05-05T10:37:50.502Z,80.01
2023-05-05T10:38:50.548Z,93.00
2023-05-05T10:39:50.477Z,91.33
2023-05-05T10:40:50.458Z,99.47
2023-05-05T10:41:50.472Z,97.87
2023-05-05T10:42:50.461Z,115.77
2023-05-05T10:43:50.458Z,118.07
2023-05-05T10:44:50.448Z,132.42
2023-05-05T10:45:50.523Z,138.49
2023-05-05T10:46:50.440Z,145.05
2023-05-05T10:47:50.560Z,151.13
2023-05-05T10:48:50.711Z,158.40
2023-05-05T10:49:50.611Z,155.38
2023-05-05T10:50:50.680Z,142.65
2023-05-05T10:51:50.656Z,149.28
2023-05-05T10:52:50.725Z,151.14
2023-05-05T10:53:50.773Z,148.33
2023-05-05T10:54:50.908Z,144.62
2023-05-05T10:55:50.834Z,140.72
2023-05-05T10:56:50.881Z,142.15
2023-05-05T10:57:50.907Z,138.10
2023-05-05T10:58:59.787Z,146.96
2023-05-05T10:59:52.214Z,147.24
2023-05-05T11:00:50.958Z,148.01
2023-05-05T11:01:50.991Z,150.51
2023-05-05T11:02:50.942Z,152.40
2023-05-05T11:03:50.961Z,161.57
2023-05-05T11:04:50.934Z,159.03
2023-05-05T11:05:50.896Z,160.13
2023-05-05T11:06:50.925Z,161.12
2023-05-05T11:07:50.880Z,156.50
2023-05-05T11:08:50.893Z,149.12
2023-05-05T11:09:51.209Z,150.16
2023-05-05T11:10:51.084Z,150.05
2023-05-05T11:11:50.865Z,144.22
2023-05-05T11:12:50.906Z,137.48
2023-05-05T11:13:50.863Z,145.22
2023-05-05T11:14:51.190Z,140.60
2023-05-05T11:15:50.861Z,143.82
2023-05-05T11:16:50.932Z,154.51
2023-05-05T11:17:50.908Z,158.74
2023-05-05T11:18:50.887Z,160.11
2023-05-05T11:19:51.212Z,161.26
2023-05-05T11:20:50.956Z,132.11
2023-05-05T11:21:51.132Z,132.98
2023-05-05T11:22:51.024Z,127.53
2023-05-05T11:23:51.121Z,120.42
2023-05-05T11:24:51.168Z,125.47
2023-05-05T11:25:51.212Z,118.06
2023-05-05T11:26:51.373Z,118.26
2023-05-05T11:27:51.305Z,112.97
2023-05-05T11:28:51.334Z,115.01
2023-05-05T11:29:52.137Z,111.02
2023-05-05T11:30:51.488Z,111.14
2023-05-05T11:31:51.473Z,94.73
2023-05-05T11:32:51.545Z,88.03
2023-05-05T11:33:51.557Z,83.16
2023-05-05T11:34:51.562Z,87.81
2023-05-05T11:35:51.545Z,93.66
2023-05-05T11:36:51.528Z,96.17
2023-05-05T11:37:51.521Z,93.96
2023-05-05T11:38:51.524Z,91.86
2023-05-05T11:39:51.509Z,95.22
2023-05-05T11:40:51.532Z,95.29
2023-05-05T11:41:51.548Z,92.52
2023-05-05T11:42:51.546Z,100.20
2023-05-05T11:43:51.576Z,104.86
2023-05-05T11:44:51.628Z,101.56
2023-05-05T11:45:51.693Z,102.66
2023-05-05T11:46:51.738Z,105.99
2023-05-05T11:47:51.808Z,113.07
2023-05-05T11:48:51.814Z,117.42
2023-05-05T11:49:51.832Z,116.63
2023-05-05T11:50:51.903Z,120.28
2023-05-05T11:51:51.939Z,115.69
2023-05-05T11:52:51.990Z,116.35
2023-05-05T11:53:52.021Z,119.84
2023-05-05T11:54:52.080Z,126.04
2023-05-05T11:55:52.104Z,123.82
2023-05-05T11:56:52.124Z,124.48
2023-05-05T11:57:52.142Z,123.26
2023-05-05T11:58:52.207Z,122.39
2023-05-05T11:59:52.163Z,123.83
2023-05-05T12:00:52.166Z,129.66
2023-05-05T12:01:52.195Z,128.45
2023-05-05T12:02:52.285Z,128.71
2023-05-05T12:03:52.466Z,127.15
2023-05-05T12:04:52.322Z,133.31
2023-05-05T12:05:52.244Z,131.90
2023-05-05T12:06:52.284Z,131.22
2023-05-05T12:07:52.280Z,133.82
2023-05-05T12:08:52.293Z,132.46
2023-05-05T12:09:52.329Z,135.19
2023-05-05T12:10:52.385Z,135.16
2023-05-05T12:11:52.414Z,136.45
2023-05-05T12:12:55.158Z,134.28
2023-05-05T12:13:52.405Z,136.62
2023-05-05T12:14:52.483Z,135.46
2023-05-05T12:15:52.440Z,133.59
2023-05-05T12:16:52.409Z,134.33
2023-05-05T12:17:52.452Z,129.46
2023-05-05T12:18:52.385Z,115.71
2023-05-05T12:19:52.433Z,97.56
2023-05-05T12:20:52.364Z,93.42
2023-05-05T12:21:52.380Z,85.99
2023-05-05T12:22:52.362Z,100.74
2023-05-05T12:23:52.360Z,111.53
2023-05-05T12:24:53.804Z,113.58
2023-05-05T12:25:52.503Z,113.68
2023-05-05T12:26:52.622Z,115.01
2023-05-05T12:27:52.509Z,116.69
2023-05-05T12:28:52.526Z,87.22
2023-05-05T12:29:52.579Z,94.07
2023-05-05T12:30:53.857Z,97.56
2023-05-05T12:31:52.660Z,83.48